Aérodrome :
LOGIN :

S'inscrire | Disclaimer

   EN    FR    IT 

 










Légende :    VFR   VFR Marginal   IFR   IFR Intensif   IFR Très Intensif
Visi : 
Plafond : 
>= 8 km
>= 3000ft
5 à 8 km
1000 à 3000 ft
1500m à 5 km
500 à 1000 ft
800 à 1500m
200 à 500 ft
< 800m
< 200 ft
Symboles :   Orages  Brouillard  Fortes neiges  Fortes précipitations  Vent > 20 kt
SIGMETs :   Divers  Orages  Givrage  Turbulence  Onde Orograph.  Cendres Volcan.






- Altitude de l'aérodrome : 83 ft
- Code IATA : LHR


EGLL - London Heathrow

DERNIER METAR :
  • 221050Z AUTO 10008KT 030V140 9999 NCD 12/01 Q1027 NOSIG

METARs EXPIRÉS :
  • 221020Z AUTO 09007KT 360V160 9999 NCD 11/M00 Q1027 NOSIG
  • 220950Z AUTO 08008KT 030V120 9999 NCD 10/01 Q1027 NOSIG
  • 220920Z AUTO 09008KT 030V120 9999 NCD 10/01 Q1027 NOSIG
  • 220850Z AUTO 09009KT 060V120 9999 NCD 08/01 Q1027 NOSIG
  • 220820Z AUTO 09010KT 060V120 9999 NCD 08/01 Q1027 NOSIG

TAF TAF EGLL
Valide du 22 à 06h jusqu'au 23 à 12h UTC


220457Z 2206/2312 07008KT CAVOK



MET'MAP, la Météo Aéronautique d'un coup d'oeil ! - Copyright ORBIFLY Décembre 2007 - Disclaimer

ORBIFLY MET'MAP TEAM :

Programmation & Développement : Alexandra Zaïnal
Sur une idée originale de : Baudouin d'Aumeries
Assistance à la programmation : Marc-Olivier Méhu
Soutien technique & logistique : Manuel Goepfert

Contact : metmap@orbifly.com




SOURCES & CREDITS :

   NOAA